Flight Track Log - Related Links

Times and Time Zones

All times are in EDT time to prevent confusion due to time zone crossing. See the UAL1635 flight status page for this flight to view local times or setup timezone preferences in your user account.

Time Position Orientation Groundspeed Altitude Reporting Facility
EDT Latitude Longitude Course Direction KTS MPH feet Rate Location/Type
06:40PM 45.5983 -122.6083 111° Southeast 170 196 600  Level Seattle Center
06:40PM 45.6064 -122.6272 301° West 172 198 1,200 2,200 Climbing Seattle Center
06:41PM 45.6206 -122.6858 289° West 228 262 2,800 2,361 Climbing Seattle Center
06:41PM 45.6292 -122.7072 300° West 224 258 3,600 2,488 Climbing Seattle Center
06:43PM 45.4078 -122.1695 138° Southeast  Level FlightAware Approximate
06:43PM 45.6469 -122.7967 286° West 250 288 6,200  Level Seattle Center
06:44PM 45.3181 -122.0541 138° Southeast  Level FlightAware Approximate
06:44PM 45.5797 -122.8300 199° South 295 339 8,800  Level Seattle Center
06:45PM 45.2358 -121.9358 145° Southeast  Level FlightAware Approximate
06:45PM 45.5353 -122.7267 122° Southeast 307 353 10,900  Level Seattle Center
06:46PM 45.1974 -121.7740 111° Southeast  Level FlightAware Approximate
06:46PM 45.4881 -122.5994 118° Southeast 342 394 13,100  Level Seattle Center
06:47PM 45.4389 -122.4661 118° Southeast 365 420 15,600 2,311 Climbing Seattle Center
06:48PM 45.3869 -122.3278 118° Southeast 385 443 17,800 2,066 Climbing Seattle Center
06:49PM 45.3222 -122.1539 118° Southeast 406 467 19,800 2,016 Climbing Seattle Center
06:50PM 45.2625 -122.0003 119° Southeast 435 501 21,900 2,016 Climbing Seattle Center
06:51PM 45.2181 -121.8361 111° Southeast 438 504 23,900 1,770 Climbing Seattle Center
06:52PM 45.1764 -121.6694 109° East 447 514 25,500 1,415 Climbing Seattle Center
06:53PM 45.1325 -121.5006 110° East 454 522 26,800 1,220 Climbing Seattle Center
06:54PM 45.0875 -121.3264 110° East 468 539 28,000 1,180 Climbing Seattle Center
06:55PM 45.0400 -121.1483 111° Southeast 480 552 29,200 1,131 Climbing Seattle Center
06:56PM 44.9919 -120.9689 111° Southeast 485 558 30,300 885 Climbing Seattle Center
06:57PM 44.9444 -120.7886 110° East 488 562 31,000 836 Climbing Seattle Center
06:58PM 44.8964 -120.6108 111° Southeast 483 556 32,000 984 Climbing Seattle Center
06:59PM 44.8481 -120.4353 111° Southeast 480 552 33,000 738 Climbing Seattle Center
07:00PM 44.7994 -120.2597 111° Southeast 480 552 33,500 836 Climbing Seattle Center
07:01PM 44.7506 -120.0861 112° Southeast 476 548 34,700 738 Climbing Seattle Center
07:02PM 44.7053 -119.9150 110° East 468 539 35,000 148 Climbing Seattle Center
07:03PM 44.6581 -119.7411 111° Southeast 472 543 35,000  Level Seattle Center
07:04PM 44.6069 -119.5714 113° Southeast 470 541 35,000  Level Seattle Center
07:05PM 44.5575 -119.4014 112° Southeast 470 541 35,000  Level Seattle Center
07:06PM 44.5050 -119.2269 113° Southeast 467 537 35,000  Level Seattle Center
07:07PM 44.4486 -119.0392 113° Southeast 468 539 35,000  Level Seattle Center
07:08PM 44.3994 -118.8717 112° Southeast 482 555 35,000  Level Seattle Center
07:09PM 44.3411 -118.6781 113° Southeast 484 557 35,000  Level Seattle Center
07:10PM 44.2886 -118.5131 114° Southeast 485 558 35,000  Level Seattle Center
07:11PM 44.2406 -118.3478 112° Southeast 484 557 35,000  Level Salt Lake Center
07:12PM 44.1808 -118.1544 113° Southeast 486 559 35,000  Level Salt Lake Center
07:13PM 44.1306 -117.9908 113° Southeast 483 556 35,000  Level Salt Lake Center
07:14PM 44.0683 -117.8003 114° Southeast 479 551 35,000  Level Salt Lake Center
07:15PM 44.0175 -117.6389 114° Southeast 477 549 35,000  Level Salt Lake Center
07:16PM 43.9689 -117.4789 113° Southeast 473 544 35,000  Level Salt Lake Center
07:17PM 43.9092 -117.2917 114° Southeast 475 547 35,000  Level Salt Lake Center
07:18PM 43.8581 -117.1308 114° Southeast 476 548 35,000  Level Salt Lake Center
07:19PM 43.7978 -116.9436 114° Southeast 478 550 35,000  Level Salt Lake Center
07:20PM 43.7467 -116.7847 114° Southeast 476 548 35,000  Level Salt Lake Center
07:21PM 43.6861 -116.6006 114° Southeast 476 548 35,000  Level Salt Lake Center
07:22PM 43.6356 -116.4436 114° Southeast 470 541 35,000  Level Salt Lake Center
07:23PM 43.5750 -116.2617 115° Southeast 470 541 35,000  Level Salt Lake Center
07:24PM 43.5367 -116.1014 108° East 464 534 35,000  Level Salt Lake Center
07:25PM 43.5028 -115.9089 104° East 465 535 35,000  Level Salt Lake Center
07:26PM 43.4725 -115.7436 104° East 466 536 35,000  Level Salt Lake Center
07:27PM 43.4433 -115.5808 104° East 460 529 35,000  Level Salt Lake Center
07:28PM 43.4089 -115.3897 104° East 462 532 35,000  Level Salt Lake Center
07:30PM 43.3789 -115.2269 104° East 460 529 35,000  Level Salt Lake Center
07:31PM 43.3444 -115.0386 104° East 458 527 35,000  Level Salt Lake Center
07:32PM 43.3133 -114.8778 105° East 455 524 35,000  Level Salt Lake Center
07:33PM 43.2786 -114.6894 104° East 455 524 35,000  Level Salt Lake Center
07:34PM 43.2481 -114.5325 105° East 447 514 35,000  Level Salt Lake Center
07:35PM 43.2133 -114.3494 105° East 444 511 35,000  Level Salt Lake Center
07:36PM 43.1844 -114.2019 105° East 441 507 35,000  Level Salt Lake Center
07:37PM 43.1525 -114.0389 105° East 444 511 35,000  Level Salt Lake Center
07:42PM 42.9750 -113.1510 105° East 439 505 35,000  Level FlightAware
07:43PM 42.9570 -113.0600 105° East 439 505 35,000  Level FlightAware
07:43PM 42.9390 -112.9690 105° East 439 505 35,000  Level FlightAware
07:44PM 42.9210 -112.8780 105° East 439 505 35,000  Level FlightAware
07:45PM 42.8990 -112.7640 105° East 439 505 35,000  Level FlightAware
07:49PM 42.6770 -112.0450 113° Southeast 461 531 35,000  Level FlightAware
07:50PM 42.6430 -111.9300 112° Southeast 461 531 35,000  Level FlightAware
07:51PM 42.6160 -111.8390 112° Southeast 461 531 35,000  Level FlightAware
07:52PM 42.5390 -111.6240 116° Southeast 462 532 35,000  Level FlightAware
07:57PM 42.2690 -110.8170 114° Southeast 461 531 35,000  Level FlightAware
07:57PM 42.2390 -110.7280 114° Southeast 461 531 35,000  Level FlightAware
07:58PM 42.2100 -110.6380 113° Southeast 461 531 35,000  Level FlightAware
07:59PM 42.1730 -110.5260 114° Southeast 461 531 35,000  Level FlightAware
08:00PM 42.1440 -110.4370 114° Southeast 461 531 35,000  Level FlightAware
08:00PM 42.1140 -110.3480 114° Southeast 461 531 35,000  Level FlightAware
08:01PM 42.0850 -110.2580 113° Southeast 461 531 35,000  Level FlightAware
08:02PM 42.0550 -110.1690 114° Southeast 461 531 35,000  Level FlightAware
08:02PM 42.0180 -110.0580 114° Southeast 461 531 35,000  Level FlightAware
08:03PM 41.9890 -109.9680 113° Southeast 461 531 35,000  Level FlightAware
08:04PM 41.9590 -109.8790 114° Southeast 461 531 35,000  Level FlightAware
08:04PM 41.9300 -109.7900 114° Southeast 461 531 35,000  Level FlightAware
08:05PM 41.9000 -109.7010 114° Southeast 461 531 35,000  Level FlightAware
08:06PM 41.8630 -109.5900 114° Southeast 461 531 35,000 -1,364 Level FlightAware
08:07PM 41.7306 -109.2756 114° Southeast 472 543 33,000 -1,200 Descending Salt Lake Center
08:08PM 41.6656 -109.0972 116° Southeast 472 543 33,000  Level Salt Lake Center
08:09PM 41.6117 -108.9433 115° Southeast 471 542 33,000  Level Salt Lake Center
08:10PM 41.5561 -108.7908 116° Southeast 472 543 33,000  Level Salt Lake Center
08:11PM 41.4908 -108.6136 116° Southeast 475 547 33,000  Level Salt Lake Center
08:12PM 41.4353 -108.4625 116° Southeast 474 545 33,000  Level Salt Lake Center
08:13PM 41.3725 -108.2844 115° Southeast 474 545 33,000  Level Salt Lake Center
08:14PM 41.3375 -108.1244 106° East 472 543 33,000  Level Salt Lake Center
08:15PM 41.2942 -107.9361 107° East 477 549 33,000  Level Salt Lake Center
08:16PM 41.2492 -107.7467 107° East 480 552 33,000  Level Denver Center
08:17PM 41.2111 -107.5872 108° East 475 547 33,000  Level Denver Center
08:23PM 40.9660 -106.5690 108° East 478 550 33,000  Level FlightAware
08:24PM 40.9350 -106.4450 108° East 478 550 33,000  Level FlightAware
08:24PM 40.9080 -106.3360 108° East 479 551 33,000 -150 Level FlightAware
08:25PM 40.8830 -106.2340 108° East 477 549 32,800 -1,835 Descending FlightAware
08:26PM 40.8500 -106.1040 109° East 459 528 30,400 -2,682 Descending FlightAware
08:26PM 40.8230 -105.9980 109° East 448 516 29,000 -2,118 Descending FlightAware
08:27PM 40.7940 -105.8840 109° East 444 511 27,400 -2,118 Descending FlightAware
08:28PM 40.7680 -105.7830 109° East 437 503 26,000 -2,025 Descending FlightAware
08:29PM 40.7390 -105.6890 112° Southeast 425 489 24,700 -1,976 Descending FlightAware
08:29PM 40.6890 -105.5930 124° Southeast 413 475 23,200 -2,047 Descending FlightAware
08:30PM 40.6430 -105.5100 126° Southeast 413 475 21,800 -1,765 Descending FlightAware
08:31PM 40.5950 -105.4240 126° Southeast 391 450 20,700 -1,553 Descending FlightAware
08:31PM 40.5530 -105.3480 126° Southeast 380 437 19,600 -1,575 Descending FlightAware
08:32PM 40.5120 -105.2730 126° Southeast 369 425 18,600 -1,341 Descending FlightAware
08:33PM 40.4780 -105.1850 117° Southeast 355 409 17,700 -1,341 Descending FlightAware
08:33PM 40.4550 -105.1040 110° East 351 404 16,700 -1,537 Descending FlightAware
08:34PM 40.4305 -105.0170 110° East 346 398 15,600 -1,167 Descending FlightAware ADS-B
08:35PM 40.4143 -104.9600 110° East 329 379 15,300 -638 Descending FlightAware ADS-B
08:35PM 40.4052 -104.9290 111° Southeast 319 367 15,100 -522 Descending FlightAware ADS-B
08:35PM 40.4006 -104.9180 119° Southeast 313 360 15,100 -486 Level FlightAware ADS-B
08:36PM 40.3762 -104.8720 125° Southeast 292 336 14,800 -896 Descending FlightAware ADS-B
08:36PM 40.3482 -104.8210 126° Southeast 285 328 14,100 -1,273 Descending FlightAware ADS-B
08:37PM 40.3250 -104.7790 126° Southeast 280 322 13,400 -1,256 Descending FlightAware ADS-B
08:37PM 40.3157 -104.7630 127° Southeast 271 312 13,200 -1,125 Descending FlightAware ADS-B
08:37PM 40.3127 -104.7580 128° Southeast 267 307 13,100 -1,333 Descending FlightAware ADS-B
08:37PM 40.3081 -104.7520 135° Southeast 261 300 13,000 -1,286 Descending FlightAware ADS-B
08:37PM 40.3003 -104.7440 142° Southeast 256 295 12,800 -2,154 Descending FlightAware ADS-B
08:38PM 40.2710 -104.7160 144° Southeast 260 299 11,600 -2,136 Descending FlightAware ADS-B
08:38PM 40.2434 -104.6910 145° Southeast 255 293 10,700 -1,875 Descending FlightAware ADS-B
08:38PM 40.2392 -104.6880 151° Southeast 251 289 10,600 -2,000 Descending FlightAware ADS-B
08:38PM 40.2337 -104.6860 164° South 246 283 10,400 -1,714 Descending FlightAware ADS-B
08:38PM 40.2238 -104.6840 171° South 240 276 10,200 -1,636 Descending FlightAware ADS-B
08:39PM 40.2088 -104.6840 180° South 237 273 9,800 -1,714 Descending FlightAware ADS-B
08:39PM 40.1925 -104.6840 180° South 232 267 9,400 -1,742 Descending FlightAware ADS-B
08:39PM 40.1756 -104.6830 177° South 228 262 8,900 -1,688 Descending FlightAware ADS-B
08:39PM 40.1596 -104.6830 180° South 226 260 8,500 -1,333 Descending FlightAware ADS-B
08:40PM 40.1477 -104.6830 180° South 221 254 8,300 -818 Descending FlightAware ADS-B
08:40PM 40.1363 -104.6840 184° South 217 250 8,200 -667 Descending FlightAware ADS-B
08:40PM 40.1210 -104.6840 180° South 216 249 8,000 -429 Descending FlightAware ADS-B
08:40PM 40.1082 -104.6840 180° South 218 251 8,000 214 Level FlightAware ADS-B
08:41PM 40.0927 -104.6850 183° South 219 252 8,100 387 Climbing FlightAware ADS-B
08:41PM 40.0772 -104.6850 180° South 219 252 8,200 400 Climbing FlightAware ADS-B
08:41PM 40.0615 -104.6860 183° South 217 250 8,300  Climbing FlightAware ADS-B
08:41PM 40.0464 -104.6850 177° South 215 247 8,200 -692 Descending FlightAware ADS-B
08:42PM 40.0355 -104.6850 180° South 218 251 8,000 -1,143 Descending FlightAware ADS-B
08:42PM 40.0249 -104.6860 184° South 217 250 7,800 -1,154 Descending FlightAware ADS-B
08:42PM 40.0100 -104.6870 183° South 212 244 7,500 -1,200 Descending FlightAware ADS-B
08:42PM 39.9954 -104.6860 177° South 206 237 7,200 -1,000 Descending FlightAware ADS-B
08:42PM 39.9814 -104.6860 180° South 197 227 7,000 -1,111 Descending FlightAware ADS-B
08:43PM 39.9706 -104.6860 180° South 191 220 6,700 -1,071 Descending FlightAware ADS-B
08:43PM 39.9570 -104.6860 180° South 187 215 6,500 -774 Descending FlightAware ADS-B
08:43PM 39.9444 -104.6860 180° South 176 203 6,300 -1,000 Descending FlightAware ADS-B
08:43PM 39.9319 -104.6860 180° South 177 204 6,000 -923 Descending FlightAware ADS-B
08:44PM 39.9233 -104.6870 185° South 177 204 5,900 -818 Descending FlightAware ADS-B
08:44PM 39.9145 -104.6870 180° South 174 200 5,700 -1,091 Descending FlightAware ADS-B
08:44PM 39.9052 -104.6870 180° South 175 201 5,500 -818 Descending FlightAware ADS-B
08:44PM 39.8969 -104.6870 180° South 174 200 5,400 -462 Descending FlightAware ADS-B
08:44PM 39.8849 -104.6870 180° South 161 185 5,300 -400 Descending FlightAware ADS-B

Login

Don't have an account? Register now (free) for customized features, flight alerts, and more!